• Join FlightAware (Why Join?)
  • Login
  • US Flag 
05:09AM EDT


 

Airport Tracker/Info


-or-


 

Live Flight TrackerFlight Track Log ✈ EJA929 ✈ 28-Jul-2013 ✈ KPRC - KABE

Flight Track Log - Related Links

Times and Time Zones

All times are in EDT time to prevent confusion due to time zone crossing. See the EJA929 flight status page for this flight to view local times or setup timezone preferences in your user account.

Time Position Orientation Groundspeed Altitude Reporting Facility
EDT Latitude Longitude Course Direction KTS MPH feet Rate Location/Type
11:19AM 34.6161 -112.4478 73° East 201 231 6,700  Level Albuquerque Center
11:20AM 34.5775 -112.3808 125° Southeast 270 311 8,700 2,580 Climbing Albuquerque Center
11:21AM 34.6186 -112.2836 63° Northeast 313 360 12,100 3,300 Climbing Albuquerque Center
11:22AM 34.6661 -112.1897 58° Northeast 322 371 15,600 2,100 Climbing Albuquerque Center
11:23AM 34.7186 -112.0847 59° Northeast 345 397 16,500 780 Climbing Albuquerque Center
11:24AM 34.8907 -111.4539 73° East  Level FlightAware Approximate
11:24AM 34.7700 -111.9717 61° Northeast 394 453 17,300  Level Albuquerque Center
11:25AM 34.8122 -111.8133 72° East 414 476 18,500 960 Climbing Albuquerque Center
11:26AM 34.8439 -111.6894 73° East 419 482 19,400 900 Climbing Albuquerque Center
11:27AM 34.8769 -111.5497 74° East 425 489 20,400 960 Climbing Albuquerque Center
11:28AM 34.9194 -111.3803 73° East 433 498 21,500 1,020 Climbing Albuquerque Center
11:29AM 34.9547 -111.2356 73° East 440 506 22,500 780 Climbing Albuquerque Center
11:30AM 34.9897 -111.0906 74° East 444 511 23,100 720 Climbing Albuquerque Center
11:31AM 35.0261 -110.9406 73° East 455 524 24,100 960 Climbing Albuquerque Center
11:32AM 35.0667 -110.7717 74° East 459 528 25,200 960 Climbing Albuquerque Center
11:33AM 35.0986 -110.6267 75° East 461 531 26,200 900 Climbing Albuquerque Center
11:34AM 35.1322 -110.4800 74° East 466 536 27,100 1,020 Climbing Albuquerque Center
11:35AM 35.1714 -110.3086 74° East 469 540 28,300 960 Climbing Albuquerque Center
11:37AM 35.2039 -110.1594 75° East 472 543 29,200 960 Climbing Albuquerque Center
11:38AM 35.2425 -109.9825 75° East 479 551 30,300 1,020 Climbing Albuquerque Center
11:39AM 35.2764 -109.8300 75° East 484 557 31,300 1,020 Climbing Albuquerque Center
11:40AM 35.3128 -109.6472 76° East 492 566 32,400 960 Climbing Albuquerque Center
11:41AM 35.3467 -109.4917 75° East 494 568 33,400 960 Climbing Albuquerque Center
11:42AM 35.3856 -109.3072 75° East 500 575 34,500 960 Climbing Albuquerque Center
11:43AM 35.4192 -109.1469 76° East 505 581 35,400 960 Climbing Albuquerque Center
11:44AM 35.4583 -108.9606 75° East 508 585 36,500 1,020 Climbing Albuquerque Center
11:45AM 35.4950 -108.7992 74° East 512 589 37,500 960 Climbing Albuquerque Center
11:46AM 35.5336 -108.6367 74° East 518 596 38,500 960 Climbing Albuquerque Center
11:47AM 35.5778 -108.4450 74° East 522 601 39,600 960 Climbing Albuquerque Center
11:48AM 35.6156 -108.2803 74° East 525 604 40,500 660 Climbing Albuquerque Center
11:49AM 35.6600 -108.0881 74° East 526 605 41,000 240 Climbing Albuquerque Center
11:50AM 35.6969 -107.9172 75° East 534 615 41,000  Level Albuquerque Center
11:51AM 35.7439 -107.7142 74° East 547 629 41,000  Level Albuquerque Center
11:52AM 35.7817 -107.5397 75° East 551 634 41,000  Level Albuquerque Center
11:53AM 35.8283 -107.3353 74° East 554 638 41,000  Level Albuquerque Center
11:54AM 35.8669 -107.1603 75° East 554 638 41,000  Level Albuquerque Center
11:55AM 35.9108 -106.9558 75° East 552 635 41,000  Level Albuquerque Center
11:56AM 35.9511 -106.7786 74° East 556 640 41,000  Level Albuquerque Center
11:57AM 35.9889 -106.6033 75° East 554 638 41,000  Level Albuquerque Center
11:58AM 36.0278 -106.4197 75° East 556 640 41,000  Level Albuquerque Center
11:59AM 36.0669 -106.2333 75° East 556 640 41,000  Level Albuquerque Center
12:00PM 36.1128 -106.0103 76° East 554 638 41,000  Level Albuquerque Center
12:01PM 36.1522 -105.8253 75° East 553 636 41,000  Level Albuquerque Center
12:02PM 36.1894 -105.6397 76° East 552 635 41,000  Level Albuquerque Center
12:03PM 36.2261 -105.4625 76° East 549 632 41,000  Level Albuquerque Center
12:04PM 36.2642 -105.2750 76° East 552 635 41,000  Level Albuquerque Center
12:05PM 36.3003 -105.0897 76° East 549 632 41,000  Level Albuquerque Center
12:06PM 36.3372 -104.9042 76° East 548 631 41,000  Level Albuquerque Center
12:07PM 36.3736 -104.7175 76° East 551 634 41,000  Level Albuquerque Center
12:08PM 36.4164 -104.4997 76° East 551 634 41,000  Level Albuquerque Center
12:09PM 36.4528 -104.3131 76° East 550 633 41,000  Level Albuquerque Center
12:10PM 36.4892 -104.1256 76° East 551 634 41,000  Level Albuquerque Center
12:11PM 36.5247 -103.9372 77° East 553 636 41,000  Level Albuquerque Center
12:13PM 36.5603 -103.7483 77° East 553 636 41,000  Level Albuquerque Center
12:14PM 36.5964 -103.5572 77° East 559 643 41,000  Level Albuquerque Center
12:15PM 36.6306 -103.3683 77° East 557 641 41,000  Level Albuquerque Center
12:16PM 36.6686 -103.1594 77° East 559 643 41,000  Level Albuquerque Center
12:17PM 36.7003 -102.9811 77° East 555 639 41,000  Level Albuquerque Center
12:18PM 36.7386 -102.7706 77° East 557 641 41,000  Level Albuquerque Center
12:19PM 36.7697 -102.5925 78° East 554 638 41,000  Level Albuquerque Center
12:20PM 36.8047 -102.3933 78° East 554 638 41,000  Level Albuquerque Center
12:21PM 36.8375 -102.2039 78° East 557 641 41,000  Level Albuquerque Center
12:22PM 36.8739 -101.9972 78° East 555 639 41,000  Level Albuquerque Center
12:23PM 36.9047 -101.8158 78° East 557 641 41,000  Level Albuquerque Center
12:24PM 36.9392 -101.6067 78° East 553 636 41,000  Level Albuquerque Center
12:25PM 36.9692 -101.4278 78° East 553 636 41,000  Level Albuquerque Center
12:26PM 37.0083 -101.1869 78° East 554 638 41,000  Level Kansas City Center
12:27PM 37.0372 -101.0072 79° East 554 638 41,000  Level Kansas City Center
12:28PM 37.0803 -100.8025 75° East 549 632 41,000  Level Kansas City Center
12:29PM 37.1192 -100.6281 74° East 548 631 41,000  Level Kansas City Center
12:30PM 37.1636 -100.4272 74° East 542 624 41,000  Level Kansas City Center
12:31PM 37.2008 -100.2550 75° East 540 621 41,000  Level Kansas City Center
12:32PM 37.2450 -100.0519 75° East 541 623 41,000  Level Kansas City Center
12:33PM 37.2817 -99.8761 75° East 544 626 41,000  Level Kansas City Center
12:34PM 37.3261 -99.6719 75° East 545 627 41,000  Level Kansas City Center
12:35PM 37.3619 -99.4961 76° East 545 627 41,000  Level Kansas City Center
12:36PM 37.4042 -99.3061 74° East 545 627 41,000  Level Kansas City Center
12:37PM 37.4422 -99.1219 75° East 545 627 41,000  Level Kansas City Center
12:39PM 37.4781 -98.9381 76° East 543 625 41,000  Level Kansas City Center
12:40PM 37.5147 -98.7533 76° East 544 626 41,000  Level Kansas City Center
12:41PM 37.5583 -98.5319 76° East 545 627 41,000  Level Kansas City Center
12:42PM 37.5964 -98.3494 75° East 543 625 41,000  Level Kansas City Center
12:43PM 37.6333 -98.1628 76° East 551 634 41,000  Level Kansas City Center
12:44PM 37.6703 -97.9597 77° East 543 625 41,000  Level Kansas City Center
12:45PM 37.7061 -97.7703 76° East 550 633 41,000  Level Kansas City Center
12:46PM 37.7425 -97.5817 76° East 552 635 41,000  Level Kansas City Center
12:47PM 37.7803 -97.3861 76° East 552 635 41,000  Level Kansas City Center
12:48PM 37.8144 -97.2011 77° East 545 627 41,000  Level Kansas City Center
12:49PM 37.8481 -97.0153 77° East 544 626 41,000  Level Kansas City Center
12:50PM 37.8811 -96.8289 77° East 543 625 41,000  Level Kansas City Center
12:51PM 37.9200 -96.6044 78° East 544 626 41,000  Level Kansas City Center
12:52PM 37.9522 -96.4169 78° East 546 628 41,000  Level Kansas City Center
12:53PM 37.9833 -96.2281 78° East 547 629 41,000  Level Kansas City Center
12:54PM 38.0150 -96.0325 78° East 539 620 41,000  Level Kansas City Center
12:55PM 38.0444 -95.8511 78° East 548 631 41,000  Level Kansas City Center
12:56PM 38.0814 -95.6397 77° East 551 634 41,000  Level Kansas City Center
12:57PM 38.1133 -95.4586 77° East 551 634 41,000  Level Kansas City Center
12:58PM 38.1492 -95.2467 78° East 552 635 41,000  Level Kansas City Center
12:59PM 38.1794 -95.0653 78° East 550 633 41,000  Level Kansas City Center
01:00PM 38.2136 -94.8536 78° East 549 632 41,000  Level Kansas City Center
01:01PM 38.2414 -94.6711 79° East 550 633 41,000  Level Kansas City Center
01:02PM 38.2753 -94.4581 78° East 552 635 41,000  Level Kansas City Center
01:03PM 38.3053 -94.2750 78° East 552 635 41,000  Level Kansas City Center
01:04PM 38.3386 -94.0731 78° East 553 636 41,100  Climbing Kansas City Center
01:05PM 38.3700 -93.8814 78° East 552 635 41,000 -60 Descending Kansas City Center
01:06PM 38.3992 -93.6894 79° East 551 634 41,000  Level Kansas City Center
01:07PM 38.4358 -93.4581 78° East 552 635 41,000  Level Kansas City Center
01:09PM 38.4658 -93.2658 79° East 550 633 41,000  Level Kansas City Center
01:10PM 38.4961 -93.0711 79° East 554 638 41,000  Level Kansas City Center
01:11PM 38.5272 -92.8753 78° East 556 640 41,000  Level Kansas City Center
01:12PM 38.5550 -92.6808 80° East 554 638 41,000  Level Kansas City Center
01:13PM 38.5833 -92.4869 79° East 553 636 41,000  Level Kansas City Center
01:14PM 38.6111 -92.2889 80° East 556 640 41,000  Level Kansas City Center
01:15PM 38.6394 -92.0922 79° East 557 641 41,000  Level Kansas City Center
01:16PM 38.6672 -91.8961 80° East 557 641 41,000  Level Kansas City Center
01:17PM 38.7000 -91.6617 80° East 555 639 41,000  Level Kansas City Center
01:18PM 38.7231 -91.4967 80° East 556 640 41,000  Level Kansas City Center
01:19PM 38.7550 -91.2628 80° East 556 640 41,000  Level Kansas City Center
01:20PM 38.7806 -91.0667 80° East 557 641 41,000  Level Kansas City Center
01:21PM 38.8089 -90.8700 79° East 559 643 41,000  Level Kansas City Center
01:22PM 38.8350 -90.6794 80° East 558 642 41,000  Level Kansas City Center
01:23PM 38.8625 -90.4811 80° East 560 644 41,000  Level Kansas City Center
01:24PM 38.9097 -90.2539 75° East 554 638 41,000  Level Kansas City Center
01:25PM 38.9611 -90.0861 68° East 571 657 41,000  Level Kansas City Center
01:26PM 39.0156 -89.8633 72° East 552 635 41,000  Level Kansas City Center
01:27PM 39.0617 -89.6750 72° East 552 635 41,000  Level Kansas City Center
01:28PM 39.1075 -89.4867 73° East 551 634 41,000  Level Kansas City Center
01:29PM 39.1556 -89.2836 73° East 552 635 41,000  Level Kansas City Center
01:30PM 39.1975 -89.1092 73° East 551 634 41,000  Level Kansas City Center
01:31PM 39.2425 -88.9231 73° East 547 629 41,000  Level Kansas City Center
01:32PM 39.2897 -88.7367 72° East 548 631 41,000  Level Kansas City Center
01:33PM 39.3392 -88.5214 73° East 554 638 41,000  Level Kansas City Center
01:34PM 39.3708 -88.3700 75° East 555 639 41,000  Level Indianapolis Center
01:35PM 39.4183 -88.1672 73° East 554 638 41,000  Level Indianapolis Center
01:36PM 39.4711 -87.9425 73° East 557 641 41,000  Level Kansas City Center
01:37PM 39.5053 -87.7833 74° East 558 642 41,000  Level Indianapolis Center
01:38PM 39.5475 -87.5908 74° East 558 642 41,000  Level Indianapolis Center
01:39PM 39.5914 -87.4000 73° East 555 639 41,000  Level Indianapolis Center
01:40PM 39.6336 -87.2097 74° East 553 636 41,000  Level Indianapolis Center
01:41PM 39.6833 -86.9789 74° East 554 638 41,000  Level Indianapolis Center
01:42PM 39.7247 -86.7881 74° East 553 636 41,000  Level Indianapolis Center
01:43PM 39.7664 -86.5956 74° East 553 636 41,000  Level Indianapolis Center
01:44PM 39.8092 -86.3964 74° East 555 639 41,000  Level Indianapolis Center
01:45PM 39.8494 -86.1997 75° East 558 642 41,000  Level Indianapolis Center
01:46PM 39.8936 -85.9975 74° East 560 644 41,000  Level Indianapolis Center
01:47PM 39.9347 -85.8031 75° East 557 641 41,000  Level Indianapolis Center
01:49PM 39.9756 -85.6078 75° East 560 644 41,000  Level Indianapolis Center
01:50PM 40.0236 -85.3722 75° East 561 646 41,000  Level Indianapolis Center
01:51PM 40.0639 -85.1764 75° East 561 646 41,000  Level Indianapolis Center
01:52PM 40.1028 -84.9797 75° East 561 646 41,000  Level Indianapolis Center
01:53PM 40.1525 -84.7808 72° East 564 649 41,000  Level Indianapolis Center
01:54PM 40.2111 -84.5894 68° East 563 648 41,000  Level Indianapolis Center
01:55PM 40.2686 -84.3950 69° East 564 649 41,000  Level Indianapolis Center
01:56PM 40.3250 -84.2033 69° East 560 644 41,000  Level Indianapolis Center
01:57PM 40.3808 -84.0108 69° East 558 642 41,000  Level Indianapolis Center
01:58PM 40.4453 -83.7836 69° East 560 644 41,000  Level Indianapolis Center
01:59PM 40.5000 -83.5911 69° East 556 640 41,000  Level Indianapolis Center
02:00PM 40.5547 -83.3958 70° East 559 643 41,000  Level Indianapolis Center
02:01PM 40.6097 -83.1989 70° East 564 649 41,000  Level Indianapolis Center
02:02PM 40.6642 -83.0075 69° East 561 646 41,000  Level Indianapolis Center
02:03PM 40.7169 -82.8131 70° East 561 646 41,000  Level Indianapolis Center
02:04PM 40.7700 -82.6200 70° East 559 643 41,000  Level Indianapolis Center
02:05PM 40.8219 -82.4264 70° East 558 642 41,000  Level Indianapolis Center
02:06PM 40.8422 -82.1925 83° East 552 635 41,000  Level Indianapolis Center
02:07PM 40.8389 -81.9906 91° East 550 633 41,000  Level Indianapolis Center
02:08PM 40.8356 -81.7903 91° East 548 631 41,000  Level Indianapolis Center
02:09PM 40.8322 -81.5881 91° East 551 634 41,000  Level Indianapolis Center
02:10PM 40.8294 -81.3878 91° East 548 631 41,000 -180 Level Indianapolis Center
02:11PM 40.8225 -81.1128 92° East 555 639 40,700 -840 Descending Cleveland Center
02:12PM 40.8214 -80.9122 90° East 550 633 39,200 -1,500 Descending Cleveland Center
02:13PM 40.8175 -80.7147 91° East 550 633 37,700 -1,140 Descending Cleveland Center
02:14PM 40.8092 -80.5117 93° East 555 639 37,000 -360 Descending Cleveland Center
02:15PM 40.8069 -80.3333 91° East 550 633 37,000 -960 Level Cleveland Center
02:16PM 40.8000 -80.1333 94° East 550 633 35,100 -2,100 Descending Cleveland Center
02:17PM 40.7969 -80.1373 94° East  Level FlightAware Approximate
02:17PM 40.7950 -79.9358 92° East 550 633 32,900  Level Cleveland Center
02:18PM 40.7875 -79.7522 93° East 524 603 31,500 -1,500 Descending Cleveland Center
02:19PM 40.7839 -79.5547 91° East 522 601 30,000 -1,500 Descending Cleveland Center
02:20PM 40.7778 -79.3519 92° East 535 616 28,600 -1,440 Descending Cleveland Center
02:21PM 40.7692 -79.1519 93° East 542 624 27,200 -1,440 Descending Cleveland Center
02:22PM 40.7603 -78.9575 93° East 542 624 25,800 -1,140 Descending Cleveland Center
02:23PM 40.7531 -78.7658 93° East 529 609 25,000 -300 Descending Cleveland Center
02:26PM 40.7350 -78.3553 93° East 544 626 25,000  Level New York Center
02:27PM 40.7250 -78.1514 94° East 532 612 25,000 -120 Level New York Center
02:28PM 40.7158 -77.9642 94° East 521 600 24,800 -900 Descending New York Center
02:29PM 40.7081 -77.7772 93° East 516 594 23,200 -1,560 Descending New York Center
02:30PM 40.6978 -77.5981 94° East 505 581 21,700 -1,560 Descending New York Center
02:31PM 40.6889 -77.4247 94° East 490 564 20,100 -1,560 Descending New York Center
02:32PM 40.6778 -77.2511 95° East 482 555 18,600 -1,560 Descending New York Center
02:33PM 40.6683 -77.0778 94° East 477 549 17,100 -1,320 Descending New York Center
02:34PM 40.6133 -76.9361 117° Southeast 436 502 16,000 -1,140 Descending New York Center
02:35PM 40.5667 -76.7897 113° Southeast 441 507 14,900 -1,620 Descending New York Center
02:36PM 40.5703 -76.6344 88° East 426 490 12,900 -1,980 Descending New York Center
02:37PM 40.5819 -76.4794 84° East 426 490 11,000 -960 Descending New York Center
02:38PM 40.5925 -76.3439 84° East 394 453 11,000  Level New York Center
02:39PM 40.6003 -76.2214 85° East 372 428 11,000 -360 Level New York Center
02:40PM 40.6100 -76.1019 84° East 344 396 10,300 -1,020 Descending New York Center
02:41PM 40.6172 -75.9847 85° East 299 344 9,000 -840 Descending New York Center
02:42PM 40.6244 -75.8706 85° East 299 344 8,600 -1,020 Descending New York Center
02:43PM 40.6264 -75.7722 88° East 299 344 7,000 -960 Descending New York Center
02:44PM 40.6203 -75.6733 95° East 287 330 6,800 -900 Descending New York Center
02:45PM 40.6222 -75.5750 88° East 276 318 5,200 -1,440 Descending New York Center
02:46PM 40.6283 -75.4742 85° East 271 312 4,000 -660 Descending New York Center
02:47PM 40.6236 -75.3808 94° East 266 306 4,000  Level New York Center
02:48PM 40.6456 -75.3031 70° East 241 277 4,000  Level New York Center
02:49PM 40.6914 -75.2431 45° Northeast 213 245 4,000  Level New York Center
02:50PM 40.7392 -75.1942 38° Northeast 208 239 4,000 -420 Level New York Center
02:51PM 40.7744 -75.1992 354° North 162 186 3,200 -840 Descending New York Center
02:52PM 40.7658 -75.2589 259° West 91 105 2,400 -420 Descending New York Center
02:53PM 40.7350 -75.3036 228° Southwest 98 113 2,400  Level New York Center